Time;durP1;ratioP1;P1;durP2;ratioP2;P2;SDS_P1;SDS_P2;PMS_P1;PMS_P2;Temp;Humidity;BMP_temperature;BMP_pressure;BME280_temperature;BME280_humidity;BME280_pressure;Samples;Min_cycle;Max_cycle;Signal;HPM_P1;HPM_P2
2022/12/25 00:01:30;;;;;;;55.12;42.60;;;;;;;5.30;68.05;100431.45;1704865;82;21077;-58
2022/12/25 00:03:56;;;;;;;52.67;41.33;;;;;;;5.28;68.11;100431.15;1701147;82;21075;-59
2022/12/25 00:06:24;;;;;;;53.02;41.15;;;;;;;5.28;68.23;100438.53;1701639;82;21135;-59
2022/12/25 00:08:51;;;;;;;51.48;41.40;;;;;;;5.26;68.00;100433.87;1696847;82;21724;-58
2022/12/25 00:11:18;;;;;;;53.35;40.28;;;;;;;5.19;67.93;100430.77;1702888;82;21585;-58
2022/12/25 00:13:46;;;;;;;49.30;36.75;;;;;;;5.17;67.88;100435.69;1708680;82;21139;-58
2022/12/25 00:16:18;;;;;;;43.83;34.98;;;;;;;5.22;67.79;100438.88;1703517;82;21156;-59
2022/12/25 00:18:45;;;;;;;41.35;34.45;;;;;;;5.27;67.68;100446.45;1706585;82;21541;-60
2022/12/25 00:21:13;;;;;;;45.92;37.98;;;;;;;5.28;67.62;100440.28;1703576;82;21182;-59
2022/12/25 00:23:40;;;;;;;48.20;39.30;;;;;;;5.23;67.71;100440.56;1712934;82;21092;-59
2022/12/25 00:26:08;;;;;;;33.67;18.55;;;;;;;5.22;67.89;100445.39;1706674;82;21556;-58
2022/12/25 00:28:35;;;;;;;48.78;40.50;;;;;;;5.23;67.99;100450.14;1718320;82;21102;-60
2022/12/25 00:31:07;;;;;;;39.33;21.65;;;;;;;5.20;67.97;100453.78;1710834;82;21638;-58
2022/12/25 00:33:35;;;;;;;49.80;39.48;;;;;;;5.18;68.12;100449.95;1713145;82;21060;-60
2022/12/25 00:36:05;;;;;;;58.30;44.05;;;;;;;5.17;68.16;100448.73;1706602;82;21055;-59
2022/12/25 00:38:33;;;;;;;29.90;15.15;;;;;;;5.15;68.00;100450.59;1709143;82;21074;-60
2022/12/25 00:41:10;;;;;;;50.65;38.73;;;;;;;5.18;67.95;100452.56;1693823;82;21621;-60
2022/12/25 00:43:38;;;;;;;54.65;42.23;;;;;;;5.24;67.87;100457.05;1693718;82;21558;-59
2022/12/25 00:46:07;;;;;;;54.80;44.10;;;;;;;5.27;67.99;100456.88;1710671;82;22023;-60
2022/12/25 00:48:34;;;;;;;60.52;48.13;;;;;;;5.26;68.07;100461.27;1703774;82;21149;-59
2022/12/25 00:51:06;;;;;;;45.58;22.87;;;;;;;5.26;68.20;100458.66;1705892;82;21018;-59
2022/12/25 00:53:33;;;;;;;65.15;48.80;;;;;;;5.27;68.23;100464.71;1702069;81;21116;-59
2022/12/25 00:56:02;;;;;;;59.65;47.70;;;;;;;5.27;68.30;100459.02;1719739;81;21115;-60
2022/12/25 00:58:30;;;;;;;57.38;45.83;;;;;;;5.25;68.21;100462.66;1717718;81;21251;-59
2022/12/25 01:00:56;;;;;;;58.80;44.63;;;;;;;5.19;68.15;100461.22;1724716;81;21056;-58
2022/12/25 01:03:23;;;;;;;55.65;44.50;;;;;;;5.28;67.93;100471.15;1726525;81;21068;-60
2022/12/25 01:05:57;;;;;;;58.63;47.55;;;;;;;5.31;68.19;100471.42;1729436;81;21532;-57
2022/12/25 01:08:24;;;;;;;60.08;47.83;;;;;;;5.39;68.29;100469.22;1727550;81;21003;-57
2022/12/25 01:11:03;;;;;;;40.75;22.05;;;;;;;5.44;68.37;100472.41;1696303;83;21245;-56
2022/12/25 01:13:30;;;;;;;38.30;22.77;;;;;;;5.48;68.35;100470.46;1685081;83;21045;-60
2022/12/25 01:15:56;;;;;;;58.02;46.35;;;;;;;5.47;68.07;100483.98;1687089;83;21122;-59
2022/12/25 01:18:23;;;;;;;59.55;47.58;;;;;;;5.43;68.03;100486.84;1707809;83;21333;-60
2022/12/25 01:20:50;;;;;;;63.05;45.75;;;;;;;5.37;67.91;100481.05;1698055;83;21089;-61
2022/12/25 01:23:16;;;;;;;55.83;44.60;;;;;;;5.35;67.91;100479.47;1686096;83;21102;-60
2022/12/25 01:25:43;;;;;;;56.68;44.35;;;;;;;5.39;67.89;100485.71;1699207;82;21094;-60
2022/12/25 01:28:10;;;;;;;58.75;44.03;;;;;;;5.47;68.03;100483.16;1698688;83;21054;-59
2022/12/25 01:30:38;;;;;;;51.13;43.00;;;;;;;5.54;68.03;100477.95;1692489;83;21122;-60
2022/12/25 01:33:06;;;;;;;57.95;45.60;;;;;;;5.56;68.03;100483.91;1695942;82;21145;-59
2022/12/25 01:35:34;;;;;;;59.40;44.98;;;;;;;5.53;67.83;100481.47;1691882;82;22300;-60
2022/12/25 01:38:00;;;;;;;56.80;45.28;;;;;;;5.48;67.77;100490.03;1712908;82;21086;-60
2022/12/25 01:40:27;;;;;;;55.03;43.60;;;;;;;5.39;67.85;100490.93;1700764;84;21050;-60
2022/12/25 01:42:54;;;;;;;53.17;42.67;;;;;;;5.30;67.84;100483.64;1687137;83;21098;-60
2022/12/25 01:45:37;;;;;;;54.40;42.25;;;;;;;5.24;67.80;100482.67;1692665;83;21216;-60
2022/12/25 01:48:12;;;;;;;51.68;39.67;;;;;;;5.32;67.96;100480.95;1685519;83;21149;-61
2022/12/25 01:50:40;;;;;;;57.83;44.38;;;;;;;5.40;67.96;100482.66;1683753;83;21614;-59
2022/12/25 01:53:06;;;;;;;50.88;42.88;;;;;;;5.47;67.75;100490.50;1686720;83;21126;-59
2022/12/25 01:55:34;;;;;;;58.00;44.73;;;;;;;5.44;67.83;100485.45;1685960;83;21060;-58
2022/12/25 01:58:01;;;;;;;35.98;20.17;;;;;;;5.45;67.97;100489.76;1715230;81;21080;-58
2022/12/25 02:00:28;;;;;;;60.03;44.98;;;;;;;5.43;67.95;100485.55;1720986;81;21171;-58
2022/12/25 02:16:41;;;;;;;34.00;17.50;;;;;;;5.42;67.82;100486.02;1760603;80;20903;-60
2022/12/25 02:19:32;;;;;;;47.20;38.88;;;;;;;5.39;68.11;100490.09;1769396;78;21258;-61
2022/12/25 02:22:25;;;;;;;50.17;41.10;;;;;;;5.43;68.17;100489.02;1770108;79;21045;-61
2022/12/25 02:25:34;;;;;;;32.73;18.67;;;;;;;5.35;68.07;100492.05;1757559;80;20987;-61
2022/12/25 02:28:27;;;;;;;50.25;41.53;;;;;;;5.26;68.12;100492.58;1768888;80;21304;-61
2022/12/25 02:30:59;;;;;;;51.90;40.43;;;;;;;5.16;68.18;100494.86;1738651;80;21038;-61
2022/12/25 02:36:20;;;;;;;29.57;17.87;;;;;;;5.23;68.27;100498.41;1760793;79;21010;-61
2022/12/25 02:41:35;;;;;;;51.45;40.20;;;;;;;5.31;68.25;100495.77;1757599;80;21120;-61
2022/12/25 03:11:29;;;;;;;42.45;32.40;;;;;;;4.92;69.32;100519.66;1760727;80;21040;-61
2022/12/25 03:11:30;;;;;;;43.08;35.35;;;;;;;5.00;69.37;100518.79;1723455;80;21487;-61
2022/12/25 03:16:53;;;;;;;42.03;34.20;;;;;;;5.03;69.28;100524.67;1766727;80;21054;-61
2022/12/25 03:27:43;;;;;;;25.72;12.58;;;;;;;4.98;69.20;100540.20;1754316;80;21260;-61
2022/12/25 03:33:13;;;;;;;40.67;31.35;;;;;;;4.91;69.48;100544.91;1767946;80;21043;-62
2022/12/25 03:36:21;;;;;;;19.42;10.93;;;;;;;4.88;69.66;100544.23;1755165;80;21056;-61
2022/12/25 04:37:56;;;;;;;27.30;21.25;;;;;;;4.51;71.23;100593.92;1730840;81;22261;-60
2022/12/25 04:40:23;;;;;;;27.20;21.50;;;;;;;4.47;71.34;100593.68;1729388;81;21261;-61
2022/12/25 04:42:50;;;;;;;20.60;10.53;;;;;;;4.45;71.36;100598.14;1731240;81;21022;-61
2022/12/25 04:45:17;;;;;;;23.38;19.05;;;;;;;4.45;71.29;100599.00;1728880;81;21018;-60
2022/12/25 04:47:44;;;;;;;14.47;7.12;;;;;;;4.49;71.17;100599.68;1703388;83;21086;-60
2022/12/25 04:50:10;;;;;;;18.87;10.08;;;;;;;4.53;71.17;100603.80;1724051;82;21725;-60
2022/12/25 04:52:38;;;;;;;17.62;9.85;;;;;;;4.58;71.17;100613.52;1687866;82;21054;-61
2022/12/25 04:55:06;;;;;;;25.05;19.35;;;;;;;4.59;71.21;100615.22;1707076;82;21074;-62
2022/12/25 04:57:33;;;;;;;17.20;8.63;;;;;;;4.58;71.29;100613.52;1726115;82;21105;-60
2022/12/25 05:00:00;;;;;;;23.98;18.55;;;;;;;4.58;71.24;100614.83;1708355;82;21110;-61
2022/12/25 05:02:26;;;;;;;22.27;17.32;;;;;;;4.54;71.14;100615.92;1712647;82;21271;-61
2022/12/25 05:04:53;;;;;;;22.02;17.27;;;;;;;4.53;71.13;100616.83;1716589;82;21384;-61
2022/12/25 05:07:21;;;;;;;19.85;16.20;;;;;;;4.57;70.97;100618.38;1710885;82;21050;-61
2022/12/25 05:09:47;;;;;;;14.50;8.13;;;;;;;4.62;70.90;100624.19;1714054;82;21050;-60
2022/12/25 05:12:14;;;;;;;13.28;7.80;;;;;;;4.63;70.85;100626.33;1715521;82;21109;-61
2022/12/25 05:14:41;;;;;;;13.58;8.00;;;;;;;4.60;70.94;100626.01;1720797;82;22057;-61
2022/12/25 05:17:08;;;;;;;19.15;16.12;;;;;;;4.54;71.00;100627.65;1710667;82;21356;-61
2022/12/25 05:19:35;;;;;;;20.80;16.73;;;;;;;4.47;71.14;100631.47;1711630;82;21035;-61
2022/12/25 05:22:01;;;;;;;20.10;16.10;;;;;;;4.41;71.29;100640.44;1718884;82;21528;-61
2022/12/25 05:24:28;;;;;;;19.02;15.70;;;;;;;4.40;71.30;100649.17;1694149;83;21076;-60
2022/12/25 05:26:55;;;;;;;16.85;13.62;;;;;;;4.43;71.23;100649.48;1710023;82;21203;-61
2022/12/25 05:29:21;;;;;;;13.58;7.22;;;;;;;4.48;71.27;100647.96;1709486;81;21081;-61
2022/12/25 05:31:48;;;;;;;12.70;6.20;;;;;;;4.50;71.29;100640.91;1714703;82;22002;-61
2022/12/25 05:34:15;;;;;;;12.13;7.53;;;;;;;4.48;71.45;100646.19;1712935;82;21919;-61
2022/12/25 05:36:41;;;;;;;14.10;7.92;;;;;;;4.47;71.56;100652.31;1711922;82;21519;-61
2022/12/25 05:39:07;;;;;;;17.02;14.28;;;;;;;4.43;71.51;100649.48;1719003;82;21031;-61
2022/12/25 05:41:34;;;;;;;16.85;13.85;;;;;;;4.40;71.51;100663.97;1703618;83;21050;-61
2022/12/25 05:44:01;;;;;;;12.23;7.28;;;;;;;4.39;71.50;100663.60;1714538;81;21023;-61
2022/12/25 05:46:28;;;;;;;13.60;6.90;;;;;;;4.45;71.37;100671.09;1710418;82;21077;-61
2022/12/25 05:48:55;;;;;;;10.43;5.75;;;;;;;4.50;71.26;100674.78;1707447;82;21082;-61
2022/12/25 05:51:21;;;;;;;15.48;12.88;;;;;;;4.49;71.24;100672.64;1729498;82;21250;-61
2022/12/25 05:53:48;;;;;;;11.33;5.55;;;;;;;4.46;71.35;100669.72;1722748;82;21349;-61
2022/12/25 05:58:23;;;;;;;16.65;13.62;;;;;;;4.24;72.20;100675.15;1789223;76;69961;-61
2022/12/25 06:00:49;;;;;;;17.70;13.43;;;;;;;4.33;71.63;100682.13;1733234;80;21490;-61
2022/12/25 06:03:16;;;;;;;17.52;12.85;;;;;;;4.35;71.60;100685.50;1740399;80;21775;-61
2022/12/25 06:05:42;;;;;;;10.50;5.70;;;;;;;4.40;71.43;100683.51;1735628;80;21493;-61
2022/12/25 06:08:09;;;;;;;10.58;5.55;;;;;;;4.46;71.33;100684.52;1708247;82;21579;-61
2022/12/25 06:10:36;;;;;;;14.87;12.18;;;;;;;4.51;71.17;100678.62;1730018;80;21452;-61
2022/12/25 06:13:02;;;;;;;15.80;12.78;;;;;;;4.50;71.29;100689.95;1738563;80;21132;-61
2022/12/25 06:15:30;;;;;;;11.05;6.45;;;;;;;4.46;71.19;100693.64;1740445;80;21267;-61
2022/12/25 06:18:00;;;;;;;12.03;6.45;;;;;;;4.40;71.27;100700.44;1726600;80;21015;-60
2022/12/25 06:20:27;;;;;;;15.15;11.78;;;;;;;4.35;71.38;100698.52;1718134;83;21051;-61
2022/12/25 06:22:53;;;;;;;14.35;11.10;;;;;;;4.34;71.34;100707.25;1712799;82;21062;-61
2022/12/25 06:25:20;;;;;;;13.20;11.20;;;;;;;4.37;71.16;100708.41;1721583;81;21036;-61
2022/12/25 06:27:46;;;;;;;11.12;6.30;;;;;;;4.40;71.09;100706.95;1699718;81;21262;-61
2022/12/25 06:30:14;;;;;;;13.35;10.55;;;;;;;4.40;71.24;100710.86;1712746;83;21118;-61
2022/12/25 06:32:41;;;;;;;12.15;6.37;;;;;;;4.39;71.38;100711.80;1703015;81;21030;-61
2022/12/25 06:35:08;;;;;;;13.15;10.60;;;;;;;4.36;71.34;100716.69;1695509;81;21614;-61
2022/12/25 06:37:35;;;;;;;14.47;11.12;;;;;;;4.31;71.28;100724.36;1709013;82;21193;-61
2022/12/25 06:40:01;;;;;;;10.23;4.53;;;;;;;4.26;71.29;100723.27;1698586;81;21220;-61
2022/12/25 06:42:29;;;;;;;9.80;4.65;;;;;;;4.32;71.25;100730.80;1710683;81;21031;-60
2022/12/25 06:44:55;;;;;;;13.43;10.80;;;;;;;4.48;70.92;100728.75;1703554;81;21089;-61
2022/12/25 06:47:22;;;;;;;9.08;5.67;;;;;;;4.51;70.67;100725.99;1701421;83;21544;-61
2022/12/25 06:49:48;;;;;;;13.80;10.18;;;;;;;4.50;70.75;100724.30;1705139;82;21075;-61
2022/12/25 06:52:16;;;;;;;11.70;9.55;;;;;;;4.40;71.00;100728.64;1694368;82;21004;-61
2022/12/25 06:54:43;;;;;;;11.80;5.05;;;;;;;4.43;70.89;100730.27;1706366;82;22200;-61
2022/12/25 06:57:10;;;;;;;14.25;10.72;;;;;;;4.42;70.76;100738.55;1672796;82;21031;-61
2022/12/25 06:59:37;;;;;;;12.53;9.40;;;;;;;4.38;70.68;100745.28;1699274;82;21083;-61
2022/12/25 07:02:04;;;;;;;7.67;4.35;;;;;;;4.42;70.57;100746.80;1697520;82;21684;-62
2022/12/25 07:04:36;;;;;;;9.43;4.67;;;;;;;4.46;70.39;100749.19;1710858;82;21885;-62
2022/12/25 07:07:05;;;;;;;13.03;6.22;;;;;;;4.46;70.20;100763.52;1704625;82;21047;-59
2022/12/25 07:09:32;;;;;;;12.23;9.20;;;;;;;4.40;70.25;100761.67;1698241;81;21666;-60
2022/12/25 07:12:18;;;;;;;10.40;5.15;;;;;;;4.34;70.39;100761.52;1702736;81;22290;-59
2022/12/25 07:14:48;;;;;;;8.95;4.62;;;;;;;4.32;70.38;100764.66;1688486;83;21058;-61
2022/12/25 07:17:16;;;;;;;12.75;9.55;;;;;;;4.25;70.44;100769.77;1693399;82;21230;-61
2022/12/25 07:19:43;;;;;;;11.33;8.43;;;;;;;4.20;70.43;100772.61;1697440;83;21512;-61
2022/12/25 07:22:09;;;;;;;11.83;9.18;;;;;;;4.23;70.23;100775.04;1708357;81;21518;-61
2022/12/25 07:24:36;;;;;;;9.43;5.03;;;;;;;4.26;70.24;100776.20;1697689;83;21041;-61
2022/12/25 07:27:03;;;;;;;11.93;8.68;;;;;;;4.30;70.10;100780.80;1696914;83;21087;-61
2022/12/25 07:29:30;;;;;;;9.93;4.30;;;;;;;4.30;70.29;100789.09;1704627;81;21664;-60
2022/12/25 07:31:57;;;;;;;11.83;8.83;;;;;;;4.24;70.17;100787.16;1706221;81;21151;-60
2022/12/25 07:34:23;;;;;;;11.57;5.72;;;;;;;4.16;70.03;100791.88;1697921;81;21568;-64
2022/12/25 07:36:50;;;;;;;11.05;8.03;;;;;;;4.09;70.13;100795.23;1703732;82;21099;-60
2022/12/25 07:39:16;;;;;;;8.45;3.87;;;;;;;4.05;70.11;100803.25;1706978;81;21587;-60
2022/12/25 07:41:43;;;;;;;10.50;7.58;;;;;;;4.05;70.06;100802.81;1699905;82;22052;-61
2022/12/25 07:44:15;;;;;;;8.90;3.72;;;;;;;4.08;69.99;100809.63;1700225;83;21056;-61
2022/12/25 07:46:42;;;;;;;9.73;4.37;;;;;;;4.02;70.10;100801.65;1688840;82;21028;-61
2022/12/25 07:49:09;;;;;;;10.53;7.87;;;;;;;3.99;70.22;100799.17;1699669;83;21635;-61
2022/12/25 07:51:36;;;;;;;10.88;7.92;;;;;;;3.96;70.24;100810.20;1697693;83;21076;-61
2022/12/25 07:54:03;;;;;;;7.25;3.55;;;;;;;3.93;70.28;100810.33;1702418;83;21269;-60
2022/12/25 07:56:30;;;;;;;10.80;7.33;;;;;;;3.90;70.20;100814.77;1702106;81;21153;-60
2022/12/25 07:58:57;;;;;;;8.55;4.87;;;;;;;3.94;70.13;100814.64;1701414;81;21065;-58
2022/12/25 08:01:25;;;;;;;10.00;7.47;;;;;;;3.95;70.14;100818.91;1733348;81;21161;-59
2022/12/25 08:03:54;;;;;;;9.88;3.60;;;;;;;3.94;70.27;100825.05;1687434;82;21654;-60
2022/12/25 08:06:22;;;;;;;7.72;3.80;;;;;;;3.89;70.27;100827.39;1728261;80;21206;-61
2022/12/25 08:08:50;;;;;;;10.38;8.05;;;;;;;3.85;70.46;100825.84;1726683;81;21055;-59
2022/12/25 08:11:16;;;;;;;11.18;7.70;;;;;;;3.83;70.52;100822.48;1736440;80;21115;-60
2022/12/25 08:13:43;;;;;;;7.35;3.50;;;;;;;3.85;70.44;100821.94;1709549;81;21109;-60
2022/12/25 08:16:10;;;;;;;10.28;7.12;;;;;;;3.93;70.27;100822.05;1726345;80;21384;-60
2022/12/25 08:18:37;;;;;;;6.08;3.27;;;;;;;3.98;70.25;100825.28;1721614;80;21950;-60
2022/12/25 08:21:10;;;;;;;7.37;3.58;;;;;;;4.02;70.19;100828.16;1737785;80;22404;-60
2022/12/25 08:23:38;;;;;;;7.20;3.35;;;;;;;4.03;70.31;100825.92;1728036;80;21003;-60
2022/12/25 08:26:05;;;;;;;7.85;4.15;;;;;;;4.03;70.35;100827.22;1728685;81;21007;-60
2022/12/25 08:28:33;;;;;;;7.83;4.05;;;;;;;4.00;70.36;100829.95;1706259;82;21034;-61
2022/12/25 08:31:05;;;;;;;8.63;3.60;;;;;;;3.98;70.43;100830.49;1704893;82;21250;-61
2022/12/25 08:33:32;;;;;;;6.80;3.35;;;;;;;3.88;70.52;100832.23;1719222;81;21162;-60
2022/12/25 08:36:07;;;;;;;6.22;2.83;;;;;;;4.03;70.17;100829.83;1727932;80;21074;-61
2022/12/25 08:38:33;;;;;;;5.72;3.15;;;;;;;4.10;70.07;100835.12;1715186;80;21607;-60
2022/12/25 08:41:00;;;;;;;9.83;3.20;;;;;;;4.06;70.21;100833.59;1718194;81;21244;-61
2022/12/25 08:43:27;;;;;;;9.33;6.28;;;;;;;4.01;70.43;100842.08;1726361;81;21237;-61
2022/12/25 08:45:54;;;;;;;9.15;6.45;;;;;;;4.01;70.62;100840.77;1713735;81;20998;-60
2022/12/25 08:48:20;;;;;;;8.55;5.83;;;;;;;4.03;70.60;100842.84;1720282;81;21095;-60
2022/12/25 08:50:51;;;;;;;7.35;3.45;;;;;;;4.02;70.64;100847.69;1680257;82;21534;-60
2022/12/25 08:53:20;;;;;;;5.65;2.37;;;;;;;4.14;70.20;100839.77;1725688;81;21062;-60
2022/12/25 08:55:46;;;;;;;5.33;2.60;;;;;;;4.22;69.87;100848.91;1740596;80;21241;-60
2022/12/25 08:58:15;;;;;;;8.10;5.58;;;;;;;4.25;69.72;100857.89;1720835;81;21077;-62
2022/12/25 09:00:42;;;;;;;9.23;6.05;;;;;;;4.26;69.79;100860.87;1745483;80;21015;-62
2022/12/25 09:03:09;;;;;;;7.58;2.87;;;;;;;4.23;69.79;100861.47;1707786;82;21049;-60
2022/12/25 09:05:36;;;;;;;6.85;2.58;;;;;;;4.17;69.69;100860.00;1736407;80;22400;-60
2022/12/25 09:08:04;;;;;;;8.60;5.70;;;;;;;4.10;69.75;100872.89;1728325;80;21653;-60
2022/12/25 09:10:30;;;;;;;8.15;3.45;;;;;;;4.04;69.93;100861.47;1738070;81;21110;-58
2022/12/25 09:12:57;;;;;;;6.85;3.05;;;;;;;4.04;69.90;100866.22;1682677;83;21010;-60
2022/12/25 09:15:24;;;;;;;7.83;5.10;;;;;;;4.08;69.89;100866.48;1735747;80;21220;-61
2022/12/25 09:17:51;;;;;;;7.17;3.17;;;;;;;4.13;69.75;100866.25;1739554;80;21142;-59
2022/12/25 09:20:17;;;;;;;7.10;2.80;;;;;;;4.16;69.79;100867.88;1732988;80;21523;-60
2022/12/25 09:22:44;;;;;;;6.62;2.95;;;;;;;4.15;69.88;100870.09;1740464;80;21114;-59
2022/12/25 09:25:11;;;;;;;7.72;5.10;;;;;;;4.12;69.93;100867.62;1746669;80;21045;-59
2022/12/25 09:27:38;;;;;;;5.55;2.15;;;;;;;4.10;70.11;100870.29;1729701;81;21031;-59
2022/12/25 09:30:07;;;;;;;7.78;5.20;;;;;;;4.11;70.14;100868.09;1740246;80;21054;-59
2022/12/25 09:32:33;;;;;;;7.15;2.58;;;;;;;4.08;70.10;100868.22;1746368;81;21854;-59
2022/12/25 09:35:00;;;;;;;5.87;2.37;;;;;;;4.06;70.02;100866.15;1745971;81;21105;-59
2022/12/25 09:37:28;;;;;;;7.08;5.03;;;;;;;4.09;69.90;100873.36;1740760;81;21560;-59
2022/12/25 09:39:54;;;;;;;7.42;3.02;;;;;;;4.16;69.91;100880.44;1742371;81;20989;-60
2022/12/25 09:42:31;;;;;;;7.00;4.87;;;;;;;4.22;69.86;100883.21;1695857;81;21074;-60
2022/12/25 09:45:02;;;;;;;8.05;5.50;;;;;;;4.20;69.93;100885.92;1700570;81;21883;-59
2022/12/25 09:47:34;;;;;;;7.30;2.62;;;;;;;4.21;70.02;100892.80;1738231;80;21070;-60
2022/12/25 09:50:15;;;;;;;6.28;2.60;;;;;;;4.20;69.99;100891.13;1727464;80;21495;-61
2022/12/25 09:52:56;;;;;;;8.98;5.72;;;;;;;4.15;70.00;100889.16;1688916;83;21109;-61
2022/12/25 09:55:24;;;;;;;5.90;2.35;;;;;;;4.12;70.04;100894.53;1703450;82;21034;-60
2022/12/25 09:57:54;;;;;;;8.43;5.28;;;;;;;4.19;69.94;100899.01;1717578;80;22535;-60
2022/12/25 10:00:24;;;;;;;7.67;5.08;;;;;;;4.25;69.89;100893.06;1737978;81;21026;-60
2022/12/25 10:03:35;;;;;;;5.60;2.25;;;;;;;4.31;69.96;100896.30;1745093;80;22279;-60
2022/12/25 10:06:53;;;;;;;8.03;5.20;;;;;;;4.34;69.92;100905.25;1732205;80;21081;-59
2022/12/25 10:09:31;;;;;;;5.90;2.37;;;;;;;4.32;69.87;100898.84;1700167;81;21106;-63
2022/12/25 10:12:22;;;;;;;7.55;3.37;;;;;;;4.23;69.70;100896.64;1706896;81;21132;-58
2022/12/25 10:15:10;;;;;;;5.78;2.15;;;;;;;4.18;69.76;100895.53;1706908;82;21093;-59
2022/12/25 10:18:01;;;;;;;6.58;3.20;;;;;;;4.20;69.74;100900.67;1725257;81;21066;-62
2022/12/25 10:20:51;;;;;;;7.03;2.50;;;;;;;4.25;69.79;100902.18;1729015;81;21098;-62
2022/12/25 10:23:25;;;;;;;5.92;3.30;;;;;;;4.26;69.82;100909.53;1724779;79;21007;-63
2022/12/25 10:25:53;;;;;;;10.93;5.62;;;;;;;4.21;69.98;100900.61;1697055;82;21145;-62
2022/12/25 10:28:35;;;;;;;6.87;3.20;;;;;;;4.20;70.12;100896.77;1695157;81;21149;-60
2022/12/25 10:31:08;;;;;;;9.98;6.60;;;;;;;4.18;70.11;100902.05;1700667;82;21299;-61
2022/12/25 10:33:36;;;;;;;6.00;2.33;;;;;;;4.14;70.10;100900.51;1706555;82;21067;-60
2022/12/25 10:36:03;;;;;;;6.37;2.58;;;;;;;4.15;70.01;100900.88;1700946;81;21128;-61
2022/12/25 10:38:30;;;;;;;5.90;2.40;;;;;;;4.20;69.90;100898.94;1733870;81;21165;-58
2022/12/25 10:41:11;;;;;;;6.47;2.75;;;;;;;4.25;69.89;100902.18;1733577;80;21018;-58
2022/12/25 10:43:52;;;;;;;8.55;3.70;;;;;;;4.28;69.88;100903.78;1741748;80;21066;-59
2022/12/25 10:46:19;;;;;;;6.97;2.85;;;;;;;4.25;69.90;100895.67;1711953;81;21068;-57
2022/12/25 10:48:55;;;;;;;6.53;3.33;;;;;;;4.23;69.99;100906.59;1733013;80;21159;-62
2022/12/25 10:51:35;;;;;;;9.28;6.78;;;;;;;4.19;69.97;100906.82;1724353;80;21806;-60
2022/12/25 10:54:05;;;;;;;6.47;2.70;;;;;;;4.14;70.13;100908.32;1700105;82;21253;-60
2022/12/25 10:56:32;;;;;;;6.33;2.83;;;;;;;4.16;70.18;100917.38;1728198;80;21028;-60
2022/12/25 10:59:06;;;;;;;8.50;5.85;;;;;;;4.23;70.03;100920.92;1741180;80;21106;-62
2022/12/25 11:04:24;;;;;;;7.60;2.70;;;;;;;4.17;70.69;100913.41;1791559;77;22738;-59
2022/12/25 11:07:00;;;;;;;9.88;4.45;;;;;;;4.30;70.18;100920.66;1776085;79;21871;-59
2022/12/25 11:09:26;;;;;;;;;;;;;;;4.27;70.21;100925.56;1771790;80;21047;-63
2022/12/25 11:11:53;;;;;;;8.90;3.58;;;;;;;4.22;70.22;100930.09;1773559;80;20131;-65
2022/12/25 11:14:19;;;;;;;6.33;3.05;;;;;;;4.15;70.42;100932.13;1764994;79;21085;-60
2022/12/25 11:16:46;;;;;;;6.35;2.92;;;;;;;4.13;70.57;100946.99;1763363;80;21093;-60
2022/12/25 11:19:30;;;;;;;7.35;2.75;;;;;;;4.19;70.51;100949.80;1766296;80;21043;-60
2022/12/25 11:21:59;;;;;;;7.47;2.65;;;;;;;4.28;70.39;100948.07;1773764;80;21365;-59
2022/12/25 11:24:31;;;;;;;7.75;2.87;;;;;;;4.30;70.38;100945.41;1775589;80;20994;-60
2022/12/25 11:27:00;;;;;;;7.25;3.47;;;;;;;4.29;70.53;100957.59;1774769;80;21687;-62
2022/12/25 11:29:41;;;;;;;5.70;2.80;;;;;;;4.17;70.87;100954.20;1720398;81;21531;-61
2022/12/25 11:32:43;;;;;;;6.62;2.75;;;;;;;4.26;70.78;100946.00;1717849;81;21081;-65
2022/12/25 11:35:16;;;;;;;9.95;5.42;;;;;;;4.22;70.78;100953.11;1712113;81;21158;-58
2022/12/25 11:37:45;;;;;;;8.50;5.83;;;;;;;4.18;70.97;100956.75;1704466;83;21090;-59
2022/12/25 11:40:40;;;;;;;7.00;2.83;;;;;;;4.26;71.04;100963.77;1716854;83;21157;-59
2022/12/25 11:43:21;;;;;;;8.33;5.67;;;;;;;4.32;71.01;100947.48;1713422;83;21052;-60
2022/12/25 11:45:54;;;;;;;5.65;2.92;;;;;;;4.43;70.85;100951.75;1699710;83;21063;-61
2022/12/25 11:48:37;;;;;;;8.63;5.62;;;;;;;4.38;70.98;100958.94;1735300;81;21805;-61
2022/12/25 11:51:05;;;;;;;7.70;5.72;;;;;;;4.38;70.87;100963.67;1730183;81;21075;-62
2022/12/25 11:53:44;;;;;;;5.25;2.02;;;;;;;4.38;70.86;100961.54;1728975;81;21097;-59
2022/12/25 11:56:28;;;;;;;8.08;5.00;;;;;;;4.51;70.60;100960.08;1723484;81;21123;-59
2022/12/25 11:59:20;;;;;;;8.15;5.28;;;;;;;4.59;70.46;100967.09;1706934;81;21518;-62
2022/12/25 12:01:54;;;;;;;6.50;2.50;;;;;;;4.63;70.37;100969.92;1722160;81;22042;-63
2022/12/25 12:04:40;;;;;;;5.35;2.15;;;;;;;4.59;70.30;100973.60;1696291;82;21090;-61
2022/12/25 12:07:24;;;;;;;5.67;2.65;;;;;;;4.46;70.57;100975.91;1676866;83;25753;-60
2022/12/25 12:10:22;;;;;;;6.85;3.17;;;;;;;4.34;70.96;100986.89;1694593;83;21125;-60
2022/12/25 12:13:13;;;;;;;6.40;2.60;;;;;;;4.32;71.05;100986.13;1701811;82;21089;-62
2022/12/25 12:15:47;;;;;;;5.17;2.50;;;;;;;4.37;70.98;100987.20;1706425;82;22257;-62
2022/12/25 12:18:28;;;;;;;8.63;5.37;;;;;;;4.41;70.83;100987.47;1702189;82;21591;-61
2022/12/25 12:21:06;;;;;;;8.75;5.55;;;;;;;4.41;70.93;100990.91;1675430;83;21114;-60
2022/12/25 12:23:47;;;;;;;7.75;4.83;;;;;;;4.40;71.05;100990.97;1681883;83;21126;-61
2022/12/25 12:26:25;;;;;;;5.90;2.72;;;;;;;4.38;71.06;100991.03;1658360;83;21058;-61
2022/12/25 12:28:53;;;;;;;;;;;;;;;4.34;71.04;101002.95;1704181;82;21842;-61
2022/12/25 12:31:20;;;;;;;5.85;2.55;;;;;;;4.25;71.16;101007.69;1695280;82;20185;-62
2022/12/25 12:33:58;;;;;;;6.55;2.27;;;;;;;4.19;71.34;101011.02;1701564;82;21070;-62
2022/12/25 12:36:25;;;;;;;6.97;4.08;;;;;;;4.20;71.27;101013.55;1735652;80;21162;-61
2022/12/25 12:38:54;;;;;;;7.40;4.80;;;;;;;4.22;71.24;101015.63;1686307;83;21092;-61
2022/12/25 12:41:21;;;;;;;8.10;4.80;;;;;;;4.22;71.30;101017.37;1684602;84;21877;-62
2022/12/25 12:43:57;;;;;;;4.30;2.02;;;;;;;4.20;71.52;101017.46;1677563;83;21569;-61
2022/12/25 12:46:29;;;;;;;7.45;4.90;;;;;;;4.20;71.67;101020.06;1691498;83;21689;-61
2022/12/25 12:49:28;;;;;;;5.05;1.85;;;;;;;4.27;71.59;101024.56;1689577;83;21054;-60
2022/12/25 12:52:22;;;;;;;6.92;2.05;;;;;;;4.35;71.30;101025.50;1694096;83;21534;-59
2022/12/25 12:55:04;;;;;;;5.08;2.27;;;;;;;4.34;71.22;101025.11;1692184;82;22051;-60
2022/12/25 12:57:38;;;;;;;7.40;4.78;;;;;;;4.36;71.29;101024.61;1680047;83;21037;-61
2022/12/25 13:00:01;;;;;;;8.80;4.72;;;;;;;4.37;71.35;101019.33;1742391;80;20939;-61
2022/12/25 13:03:09;;;;;;;6.67;2.42;;;;;;;4.49;71.22;101025.76;1736218;80;21201;-61
2022/12/25 13:05:56;;;;;;;7.42;3.65;;;;;;;4.50;71.16;101032.64;1733386;80;21085;-60
2022/12/25 13:09:01;;;;;;;5.85;2.40;;;;;;;4.48;70.97;101036.25;1740892;80;21295;-61
2022/12/25 13:11:30;;;;;;;7.95;4.97;;;;;;;4.34;71.28;101034.22;1736534;80;21092;-60
2022/12/25 13:14:00;;;;;;;5.30;2.12;;;;;;;4.42;70.96;101035.61;1735981;80;21547;-60
2022/12/25 13:16:37;;;;;;;8.25;5.60;;;;;;;4.52;70.73;101039.93;1737470;80;21094;-61
2022/12/25 13:19:21;;;;;;;8.98;5.72;;;;;;;4.59;70.52;101042.67;1735413;80;21038;-61
2022/12/25 13:21:57;;;;;;;7.67;3.37;;;;;;;4.58;70.53;101047.48;1740707;81;21092;-60
2022/12/25 13:24:30;;;;;;;8.60;3.02;;;;;;;4.58;70.57;101048.80;1740168;80;21567;-61
2022/12/25 13:26:57;;;;;;;7.80;3.37;;;;;;;4.55;70.45;101056.74;1746566;80;21058;-61
2022/12/25 13:29:37;;;;;;;6.08;2.67;;;;;;;4.51;70.32;101065.62;1734196;81;21110;-62
2022/12/25 13:32:05;;;;;;;8.40;2.67;;;;;;;4.54;70.24;101069.84;1739257;80;21048;-61
2022/12/25 13:34:40;;;;;;;8.58;5.62;;;;;;;4.61;70.22;101069.98;1736868;80;21100;-62
2022/12/25 13:37:15;;;;;;;7.60;2.93;;;;;;;4.67;70.12;101074.06;1739878;80;21008;-60
2022/12/25 13:39:58;;;;;;;6.20;2.45;;;;;;;4.70;70.11;101084.36;1738323;80;21803;-60
2022/12/25 13:42:35;;;;;;;10.03;6.37;;;;;;;4.67;70.17;101083.19;1737369;80;21050;-59
2022/12/25 13:45:14;;;;;;;9.40;5.78;;;;;;;4.64;70.30;101085.03;1734486;80;21595;-61
2022/12/25 13:47:42;;;;;;;8.88;5.65;;;;;;;4.67;70.34;101089.70;1733810;81;21254;-60
2022/12/25 13:50:30;;;;;;;6.05;2.65;;;;;;;4.64;70.28;101087.63;1740367;80;21070;-60